Time;durP1;ratioP1;P1;durP2;ratioP2;P2;SDS_P1;SDS_P2;PMS_P1;PMS_P2;Temp;Humidity;BMP_temperature;BMP_pressure;BME280_temperature;BME280_humidity;BME280_pressure;Samples;Min_cycle;Max_cycle;Signal;HPM_P1;HPM_P2
2021/08/12 00:02:30;;;;;;;1.10;1.00;;;24.20;59.10;;;;;;6240871;28;20029;-69
2021/08/12 00:05:30;;;;;;;1.20;1.10;;;24.20;59.00;;;;;;6240775;28;20039;-70
2021/08/12 00:08:31;;;;;;;1.20;1.00;;;24.20;59.00;;;;;;6241272;28;20091;-70
2021/08/12 00:11:31;;;;;;;1.05;0.95;;;24.20;59.00;;;;;;6241025;28;20062;-70
2021/08/12 00:14:33;;;;;;;1.15;0.98;;;24.20;59.00;;;;;;6228244;28;20030;-70
2021/08/12 00:17:33;;;;;;;1.23;1.00;;;24.20;59.00;;;;;;6241104;28;20480;-70
2021/08/12 00:20:34;;;;;;;1.40;0.95;;;24.20;59.00;;;;;;6240779;28;20130;-69
2021/08/12 00:23:34;;;;;;;1.13;0.95;;;24.20;59.00;;;;;;6240757;28;20424;-70
2021/08/12 00:26:35;;;;;;;1.00;0.90;;;24.20;59.00;;;;;;6240500;28;20112;-70
2021/08/12 00:29:35;;;;;;;1.00;0.90;;;24.20;59.00;;;;;;6239881;28;20120;-70
2021/08/12 00:32:36;;;;;;;1.48;1.30;;;24.20;59.00;;;;;;6240130;28;20109;-70
2021/08/12 00:35:36;;;;;;;1.10;0.95;;;24.20;59.00;;;;;;6240288;28;20064;-70
2021/08/12 00:38:37;;;;;;;1.45;1.10;;;24.20;59.00;;;;;;6240510;28;20127;-70
2021/08/12 00:41:41;;;;;;;0.80;0.80;;;24.20;59.10;;;;;;6240387;28;20432;-70
2021/08/12 00:44:41;;;;;;;1.13;1.00;;;24.20;59.10;;;;;;6240432;28;20249;-70
2021/08/12 00:47:42;;;;;;;1.10;0.90;;;24.20;59.00;;;;;;6241815;28;20440;-70
2021/08/12 00:50:43;;;;;;;1.40;0.90;;;24.20;59.10;;;;;;6245736;28;20025;-69
2021/08/12 00:53:44;;;;;;;1.23;1.13;;;24.20;59.10;;;;;;6245334;28;20124;-70
2021/08/12 00:56:48;;;;;;;2.33;1.20;;;24.20;59.10;;;;;;6245262;28;20114;-70
2021/08/12 00:59:49;;;;;;;1.35;1.00;;;24.20;59.00;;;;;;6245318;28;20481;-70
2021/08/12 01:02:49;;;;;;;1.10;1.00;;;24.20;59.00;;;;;;6244283;28;20030;-70
2021/08/12 01:05:54;;;;;;;1.23;1.13;;;24.20;59.00;;;;;;6245180;28;20570;-69
2021/08/12 01:09:06;;;;;;;1.55;1.02;;;24.20;59.00;;;;;;6245269;28;20026;-70
2021/08/12 01:12:15;;;;;;;1.35;1.08;;;24.20;59.10;;;;;;6244895;28;20038;-70
2021/08/12 01:15:26;;;;;;;1.30;1.20;;;24.20;59.00;;;;;;6226004;28;20026;-70
2021/08/12 01:18:54;;;;;;;1.33;1.00;;;24.20;59.00;;;;;;6235093;28;20018;-70
2021/08/12 01:22:01;;;;;;;1.50;1.15;;;24.20;59.00;;;;;;6244697;28;20067;-70
2021/08/12 01:25:07;;;;;;;2.42;1.10;;;24.20;59.10;;;;;;6245563;28;20021;-70
2021/08/12 01:28:13;;;;;;;1.35;1.20;;;24.20;59.10;;;;;;6244477;28;20404;-70
2021/08/12 01:31:26;;;;;;;1.13;1.02;;;24.20;59.10;;;;;;6244312;28;20546;-70
2021/08/12 01:34:46;;;;;;;1.20;1.10;;;24.20;59.00;;;;;;6243937;28;20029;-69
2021/08/12 01:37:56;;;;;;;0.80;0.70;;;24.20;59.00;;;;;;6244247;28;20028;-70
2021/08/12 01:40:59;;;;;;;1.38;1.10;;;24.20;59.00;;;;;;6244672;28;20029;-70
2021/08/12 01:44:00;;;;;;;1.00;0.90;;;24.20;59.10;;;;;;6242906;28;20259;-70
2021/08/12 01:47:01;;;;;;;1.48;1.10;;;24.20;59.00;;;;;;6244506;28;20037;-70
2021/08/12 01:50:04;;;;;;;1.30;1.10;;;24.20;59.00;;;;;;6244293;28;20053;-70
2021/08/12 01:53:05;;;;;;;0.80;0.77;;;24.20;59.10;;;;;;6243669;28;20021;-70
2021/08/12 01:56:06;;;;;;;1.10;1.00;;;24.20;59.10;;;;;;6244096;28;20099;-70
2021/08/12 01:59:07;;;;;;;1.40;1.00;;;24.20;59.10;;;;;;6243650;28;20383;-70
2021/08/12 02:02:10;;;;;;;1.40;1.00;;;24.20;59.10;;;;;;6243607;28;20545;-70
2021/08/12 02:05:13;;;;;;;1.30;1.00;;;24.20;59.00;;;;;;6243842;28;20117;-70
2021/08/12 02:08:17;;;;;;;1.40;1.02;;;24.20;59.10;;;;;;6243845;28;20039;-70
2021/08/12 02:11:17;;;;;;;1.15;1.00;;;24.20;59.10;;;;;;6243987;28;20021;-70
2021/08/12 02:14:18;;;;;;;1.13;1.00;;;24.20;59.10;;;;;;6232351;28;20066;-70
2021/08/12 02:17:18;;;;;;;1.02;0.93;;;24.20;59.00;;;;;;6219287;28;20030;-70
2021/08/12 02:20:19;;;;;;;1.05;0.90;;;24.20;59.70;;;;;;6239716;28;20162;-71
2021/08/12 02:23:32;;;;;;;1.10;1.00;;;24.20;59.00;;;;;;6243571;28;20025;-70
2021/08/12 02:26:46;;;;;;;2.10;1.20;;;24.20;59.10;;;;;;6243443;28;20030;-70
2021/08/12 02:29:48;;;;;;;1.45;1.00;;;24.20;59.10;;;;;;6242768;28;20111;-70
2021/08/12 02:32:50;;;;;;;1.17;1.08;;;24.20;59.00;;;;;;6243486;28;20037;-70
2021/08/12 02:35:51;;;;;;;1.00;0.80;;;24.20;59.10;;;;;;6243446;28;20120;-70
2021/08/12 02:38:53;;;;;;;1.10;0.90;;;24.20;59.00;;;;;;6243019;28;20076;-71
2021/08/12 02:41:55;;;;;;;1.33;1.02;;;24.20;59.10;;;;;;6243378;28;20028;-71
2021/08/12 02:44:57;;;;;;;1.65;1.20;;;24.20;59.10;;;;;;6242908;28;20030;-70
2021/08/12 02:48:00;;;;;;;1.17;0.98;;;24.20;59.00;;;;;;6242919;28;20025;-70
2021/08/12 02:51:02;;;;;;;0.95;0.82;;;24.20;59.00;;;;;;6242519;28;20033;-70
2021/08/12 02:54:05;;;;;;;1.13;0.98;;;24.20;59.00;;;;;;6242541;28;20041;-70
2021/08/12 02:57:06;;;;;;;1.33;1.00;;;24.20;59.10;;;;;;6242743;28;20573;-70
2021/08/12 03:00:08;;;;;;;1.10;1.00;;;24.20;59.00;;;;;;6242040;28;20405;-70
2021/08/12 03:03:10;;;;;;;1.55;1.20;;;24.20;59.00;;;;;;6242771;28;20055;-70
2021/08/12 03:06:17;;;;;;;1.08;0.90;;;24.20;59.00;;;;;;6241804;28;20056;-70
2021/08/12 03:09:20;;;;;;;1.52;1.13;;;24.20;59.10;;;;;;6242315;28;20084;-70
2021/08/12 03:12:21;;;;;;;1.00;0.82;;;24.20;59.10;;;;;;6241348;28;20029;-70
2021/08/12 03:15:23;;;;;;;1.67;1.33;;;24.20;59.10;;;;;;6236979;28;20029;-71
2021/08/12 03:18:23;;;;;;;1.33;1.08;;;24.20;59.00;;;;;;6242382;28;20034;-70
2021/08/12 03:21:24;;;;;;;1.17;1.08;;;24.20;59.10;;;;;;6242153;28;20358;-70
2021/08/12 03:24:25;;;;;;;1.05;0.88;;;24.20;59.00;;;;;;6242296;28;20393;-70
2021/08/12 03:27:26;;;;;;;0.98;0.90;;;24.20;59.00;;;;;;6241151;28;20033;-70
2021/08/12 03:30:26;;;;;;;1.73;1.08;;;24.20;59.00;;;;;;6241915;28;20037;-71
2021/08/12 03:33:27;;;;;;;1.00;0.95;;;24.20;59.00;;;;;;6242180;28;20373;-71
2021/08/12 03:36:27;;;;;;;0.77;0.77;;;24.20;59.10;;;;;;6241785;28;20123;-70
2021/08/12 03:39:28;;;;;;;1.23;0.95;;;24.20;59.00;;;;;;6241681;28;20493;-70
2021/08/12 03:42:30;;;;;;;1.10;0.98;;;24.20;59.00;;;;;;6241383;28;20064;-70
2021/08/12 03:45:30;;;;;;;0.90;0.82;;;24.20;59.00;;;;;;6241598;28;20036;-70
2021/08/12 03:48:31;;;;;;;1.40;0.90;;;24.20;59.00;;;;;;6239734;28;20357;-70
2021/08/12 03:51:31;;;;;;;1.30;1.20;;;24.20;59.00;;;;;;6241500;28;20411;-70
2021/08/12 03:54:34;;;;;;;1.00;0.88;;;24.20;59.00;;;;;;6241427;28;20033;-70
2021/08/12 03:57:39;;;;;;;1.15;1.05;;;24.20;59.00;;;;;;6240806;28;20049;-71
2021/08/12 04:00:40;;;;;;;1.17;1.00;;;24.20;59.00;;;;;;6241365;28;20056;-71
2021/08/12 04:03:40;;;;;;;1.05;0.98;;;24.20;59.00;;;;;;6240551;28;20026;-70
2021/08/12 04:06:42;;;;;;;1.20;1.05;;;24.20;59.00;;;;;;6241434;28;20385;-70
2021/08/12 04:09:43;;;;;;;1.40;1.10;;;24.20;59.00;;;;;;6241331;28;20025;-70
2021/08/12 04:12:43;;;;;;;1.20;0.98;;;24.20;59.00;;;;;;6240980;28;20480;-70
2021/08/12 04:15:44;;;;;;;1.15;1.05;;;24.20;59.00;;;;;;6220081;28;20036;-70
2021/08/12 04:18:45;;;;;;;1.10;1.00;;;24.20;59.00;;;;;;6240775;28;20145;-70
2021/08/12 04:21:45;;;;;;;1.10;1.00;;;24.20;59.00;;;;;;6240840;28;20112;-71
2021/08/12 04:24:46;;;;;;;1.27;1.00;;;24.20;59.00;;;;;;6240573;28;20039;-70
2021/08/12 04:27:46;;;;;;;1.13;1.00;;;24.20;59.80;;;;;;6239047;28;20029;-70
2021/08/12 04:30:49;;;;;;;1.63;1.20;;;24.20;59.70;;;;;;6240758;28;20488;-70
2021/08/12 04:33:50;;;;;;;1.10;1.00;;;24.20;59.00;;;;;;6240253;28;20112;-70
2021/08/12 04:36:50;;;;;;;1.25;1.00;;;24.20;59.00;;;;;;6239302;28;20059;-70
2021/08/12 04:39:51;;;;;;;1.50;1.23;;;24.20;59.00;;;;;;6241118;28;20052;-70
2021/08/12 04:42:53;;;;;;;1.20;0.90;;;24.20;59.00;;;;;;6240340;28;20460;-70
2021/08/12 04:45:53;;;;;;;1.30;1.10;;;24.20;59.00;;;;;;6240269;28;20179;-70
2021/08/12 04:48:54;;;;;;;1.35;1.20;;;24.20;59.00;;;;;;6239961;28;20030;-70
2021/08/12 04:51:54;;;;;;;1.20;1.10;;;24.20;59.00;;;;;;6240506;28;20034;-70
2021/08/12 04:54:55;;;;;;;1.20;1.10;;;24.20;59.00;;;;;;6240989;28;20160;-69
2021/08/12 04:57:55;;;;;;;3.90;1.10;;;24.20;59.00;;;;;;6239895;28;20057;-70
2021/08/12 05:00:56;;;;;;;1.25;0.95;;;24.20;59.00;;;;;;6238332;28;20459;-71
2021/08/12 05:03:57;;;;;;;1.58;1.10;;;24.20;59.00;;;;;;6239983;28;20092;-70
2021/08/12 05:06:58;;;;;;;2.47;1.40;;;24.20;59.00;;;;;;6240427;28;20053;-70
2021/08/12 05:09:59;;;;;;;2.60;1.30;;;24.20;59.00;;;;;;6240379;28;20033;-70
2021/08/12 05:13:00;;;;;;;1.10;1.00;;;24.20;59.00;;;;;;6240149;28;20068;-70
2021/08/12 05:16:01;;;;;;;1.30;1.10;;;24.20;59.00;;;;;;6216019;28;20064;-70
2021/08/12 05:19:02;;;;;;;1.58;1.20;;;24.20;59.00;;;;;;6233851;28;20033;-70
2021/08/12 05:22:02;;;;;;;2.85;1.33;;;24.20;59.00;;;;;;6240364;28;20033;-70
2021/08/12 05:25:05;;;;;;;1.42;1.10;;;24.20;59.00;;;;;;6240085;28;20086;-70
2021/08/12 05:28:05;;;;;;;1.67;1.30;;;24.20;59.00;;;;;;6239934;28;20548;-70
2021/08/12 05:31:06;;;;;;;1.30;1.20;;;24.20;59.00;;;;;;6240051;28;20067;-70
2021/08/12 05:34:06;;;;;;;1.20;1.10;;;24.20;59.00;;;;;;6241403;28;20473;-70
2021/08/12 05:37:06;;;;;;;1.30;1.20;;;24.20;59.00;;;;;;6226752;28;20021;-70
2021/08/12 05:40:08;;;;;;;1.40;1.30;;;24.20;59.00;;;;;;6241419;28;20108;-70
2021/08/12 05:43:08;;;;;;;2.33;1.27;;;24.20;58.80;;;;;;6241953;28;20037;-70
2021/08/12 05:46:09;;;;;;;1.70;1.10;;;24.20;58.90;;;;;;6242712;28;20037;-71
2021/08/12 05:49:10;;;;;;;1.60;1.20;;;24.20;59.00;;;;;;6236000;28;20561;-70
2021/08/12 05:52:10;;;;;;;2.13;1.30;;;24.20;58.90;;;;;;6219922;28;20037;-70
2021/08/12 05:55:11;;;;;;;2.85;1.77;;;24.20;59.00;;;;;;6241554;28;20388;-70
2021/08/12 05:58:11;;;;;;;1.60;1.40;;;24.20;59.00;;;;;;6243829;28;20061;-70
2021/08/12 06:01:12;;;;;;;1.73;1.33;;;24.20;59.00;;;;;;6239463;28;20533;-70
2021/08/12 06:04:12;;;;;;;1.88;1.52;;;24.20;59.00;;;;;;6232284;28;20038;-70
2021/08/12 06:07:13;;;;;;;2.95;1.55;;;24.20;59.00;;;;;;6246953;28;20079;-70
2021/08/12 06:10:15;;;;;;;2.10;1.60;;;24.20;59.00;;;;;;6244335;28;20500;-70
2021/08/12 06:13:15;;;;;;;1.50;1.38;;;24.20;59.00;;;;;;6244009;28;20385;-70
2021/08/12 06:16:16;;;;;;;1.80;1.45;;;24.20;59.00;;;;;;6246581;28;20022;-71
2021/08/12 06:19:16;;;;;;;2.03;1.40;;;24.20;59.00;;;;;;6246442;28;20112;-71
2021/08/12 06:22:17;;;;;;;2.60;1.80;;;24.20;59.00;;;;;;6246390;28;20445;-70
2021/08/12 06:25:17;;;;;;;2.47;1.90;;;24.20;59.00;;;;;;6245934;28;20036;-70
2021/08/12 06:28:18;;;;;;;2.88;1.50;;;24.20;59.00;;;;;;6245364;28;20025;-70
2021/08/12 06:31:18;;;;;;;1.70;1.38;;;24.20;59.00;;;;;;6245579;28;20025;-70
2021/08/12 06:34:19;;;;;;;2.03;1.63;;;24.20;59.00;;;;;;6244364;28;20049;-70
2021/08/12 06:37:19;;;;;;;1.98;1.70;;;24.20;59.00;;;;;;6245793;28;20067;-70
2021/08/12 06:40:22;;;;;;;1.85;1.38;;;24.20;59.00;;;;;;6245971;28;20109;-70
2021/08/12 06:43:22;;;;;;;3.40;1.50;;;24.20;59.00;;;;;;6245609;28;20074;-70
2021/08/12 06:46:23;;;;;;;2.50;1.20;;;24.20;59.00;;;;;;6244233;28;20033;-70
2021/08/12 06:49:23;;;;;;;2.92;1.90;;;24.20;59.00;;;;;;6245687;28;20316;-70
2021/08/12 06:52:24;;;;;;;1.85;1.50;;;24.20;59.00;;;;;;6246085;28;20034;-70
2021/08/12 06:55:25;;;;;;;2.17;1.40;;;24.20;59.00;;;;;;6245021;28;20072;-71
2021/08/12 06:58:25;;;;;;;1.98;1.55;;;24.20;59.00;;;;;;6245226;28;20127;-70
2021/08/12 07:01:26;;;;;;;2.00;1.30;;;24.20;59.00;;;;;;6245380;28;20058;-70
2021/08/12 07:04:26;;;;;;;1.70;1.50;;;24.20;59.00;;;;;;6244695;28;20494;-70
2021/08/12 07:07:27;;;;;;;1.95;1.60;;;24.20;59.00;;;;;;6245387;28;20025;-70
2021/08/12 07:10:27;;;;;;;1.90;1.50;;;24.20;59.00;;;;;;6245392;28;20030;-70
2021/08/12 07:13:28;;;;;;;1.67;1.42;;;24.20;59.00;;;;;;6240777;28;20393;-70
2021/08/12 07:16:28;;;;;;;2.38;1.52;;;24.20;59.00;;;;;;6240733;28;20037;-71
2021/08/12 07:19:29;;;;;;;1.80;1.38;;;24.20;58.90;;;;;;6246268;28;20031;-71
2021/08/12 07:22:30;;;;;;;1.35;1.23;;;24.20;59.00;;;;;;6245573;28;20115;-71
2021/08/12 07:25:30;;;;;;;2.25;1.27;;;24.20;59.00;;;;;;6245049;28;20025;-71
2021/08/12 07:28:30;;;;;;;1.55;1.45;;;24.20;59.00;;;;;;6245120;28;20106;-70
2021/08/12 07:31:31;;;;;;;3.83;1.42;;;24.20;59.00;;;;;;6244729;28;20033;-70
2021/08/12 07:34:32;;;;;;;2.05;1.33;;;24.20;58.90;;;;;;6245071;28;20033;-70
2021/08/12 07:37:32;;;;;;;2.05;1.58;;;24.30;59.00;;;;;;6244670;28;20025;-70
2021/08/12 07:40:33;;;;;;;1.67;1.40;;;24.20;58.90;;;;;;6244346;28;20472;-70
2021/08/12 07:43:33;;;;;;;2.15;1.60;;;24.20;58.90;;;;;;6244807;28;20037;-70
2021/08/12 07:46:34;;;;;;;2.05;1.48;;;24.20;58.90;;;;;;6244011;28;20029;-70
2021/08/12 07:49:34;;;;;;;1.63;1.50;;;24.20;58.90;;;;;;6244337;28;20480;-70
2021/08/12 07:52:38;;;;;;;2.15;1.60;;;24.20;58.90;;;;;;6244480;28;20025;-71
2021/08/12 07:55:39;;;;;;;4.10;1.30;;;24.20;58.90;;;;;;6244449;28;20076;-70
2021/08/12 07:58:40;;;;;;;1.70;1.48;;;24.20;58.90;;;;;;6243996;28;20404;-70
2021/08/12 08:01:40;;;;;;;1.55;1.45;;;24.20;59.00;;;;;;6244470;28;20033;-71
2021/08/12 08:04:43;;;;;;;2.60;1.70;;;24.20;59.60;;;;;;6245538;28;20061;-70
2021/08/12 08:07:45;;;;;;;1.80;1.50;;;24.20;58.90;;;;;;6244849;28;20029;-70
2021/08/12 08:10:46;;;;;;;1.33;1.20;;;24.20;58.90;;;;;;6244128;28;20075;-70
2021/08/12 08:13:46;;;;;;;1.27;1.17;;;24.20;58.90;;;;;;6242319;28;20037;-70
2021/08/12 08:16:47;;;;;;;1.80;1.40;;;24.30;59.00;;;;;;6243630;28;20052;-70
2021/08/12 08:19:47;;;;;;;1.98;1.40;;;24.20;58.90;;;;;;6244135;28;20048;-71
2021/08/12 08:22:48;;;;;;;1.30;1.13;;;24.20;58.90;;;;;;6243371;28;20029;-71
2021/08/12 08:25:48;;;;;;;2.08;1.55;;;24.20;58.90;;;;;;6244404;28;20044;-71
2021/08/12 08:28:49;;;;;;;1.30;1.10;;;24.20;58.90;;;;;;6243518;28;20033;-71
2021/08/12 08:31:49;;;;;;;1.30;1.17;;;24.20;58.90;;;;;;6243448;28;20025;-70
2021/08/12 08:34:50;;;;;;;1.45;1.00;;;24.20;58.90;;;;;;6243884;28;20030;-70
2021/08/12 08:37:51;;;;;;;1.50;1.40;;;24.20;58.90;;;;;;6243464;28;20064;-70
2021/08/12 08:40:51;;;;;;;1.83;1.50;;;24.20;58.90;;;;;;6243971;28;20041;-70
2021/08/12 08:43:53;;;;;;;2.15;1.52;;;24.20;58.90;;;;;;6243368;28;20021;-70
2021/08/12 08:46:56;;;;;;;2.40;1.23;;;24.20;58.90;;;;;;6242879;28;20503;-71
2021/08/12 08:49:57;;;;;;;1.55;1.45;;;24.20;58.90;;;;;;6243889;28;20124;-70
2021/08/12 08:52:59;;;;;;;1.55;1.20;;;24.30;59.00;;;;;;6243073;28;20049;-70
2021/08/12 08:56:00;;;;;;;1.40;1.30;;;24.20;58.90;;;;;;6243021;28;20102;-71
2021/08/12 08:59:01;;;;;;;1.75;1.30;;;24.20;58.90;;;;;;6243171;28;20077;-71
2021/08/12 09:02:07;;;;;;;1.58;1.23;;;24.20;58.90;;;;;;6242798;28;20116;-71
2021/08/12 09:05:08;;;;;;;1.13;0.98;;;24.20;58.90;;;;;;6243142;28;20036;-71
2021/08/12 09:08:08;;;;;;;1.45;1.23;;;24.20;58.90;;;;;;6242172;28;20025;-70
2021/08/12 09:11:09;;;;;;;1.40;1.20;;;24.20;58.90;;;;;;6248337;28;20592;-70
2021/08/12 09:14:31;;;;;;;1.65;1.38;;;24.20;58.90;;;;;;6237612;28;20041;-70
2021/08/12 09:17:32;;;;;;;1.40;1.10;;;24.20;58.90;;;;;;6229354;28;20037;-70
2021/08/12 09:20:32;;;;;;;1.15;1.05;;;24.20;58.90;;;;;;6248315;28;20030;-70
2021/08/12 09:23:33;;;;;;;1.15;1.05;;;24.20;58.90;;;;;;6247719;28;20048;-70
2021/08/12 09:26:38;;;;;;;2.00;1.48;;;24.20;58.90;;;;;;6247622;28;20052;-70
2021/08/12 09:29:39;;;;;;;1.42;1.25;;;24.20;58.90;;;;;;6246330;28;20354;-70
2021/08/12 09:32:48;;;;;;;1.27;1.08;;;24.20;58.90;;;;;;6247096;28;20025;-71
2021/08/12 09:35:49;;;;;;;1.50;1.33;;;24.20;58.90;;;;;;6247506;28;20044;-70
2021/08/12 09:39:08;;;;;;;1.23;1.13;;;24.20;58.90;;;;;;6247553;28;20029;-70
2021/08/12 09:42:11;;;;;;;1.40;1.08;;;24.20;58.90;;;;;;6247209;28;20029;-71
2021/08/12 09:45:23;;;;;;;1.15;1.05;;;24.20;58.90;;;;;;6247354;28;20088;-71
2021/08/12 09:48:24;;;;;;;1.38;1.27;;;24.20;58.90;;;;;;6247386;28;20392;-70
2021/08/12 09:51:33;;;;;;;1.38;1.27;;;24.20;58.90;;;;;;6247174;28;20032;-70
2021/08/12 09:54:35;;;;;;;1.38;1.23;;;24.20;58.90;;;;;;6246197;28;20095;-71
2021/08/12 09:57:54;;;;;;;1.38;1.20;;;24.20;58.80;;;;;;6246641;28;20418;-70
2021/08/12 10:00:55;;;;;;;1.35;1.10;;;24.20;58.90;;;;;;6246463;28;20473;-70
2021/08/12 10:03:55;;;;;;;1.58;1.30;;;24.20;58.90;;;;;;6246435;28;20033;-71
2021/08/12 10:06:56;;;;;;;1.75;1.10;;;24.20;58.90;;;;;;6246967;28;20029;-70
2021/08/12 10:09:56;;;;;;;1.25;1.15;;;24.20;58.90;;;;;;6246464;28;20049;-70
2021/08/12 10:13:00;;;;;;;1.00;0.90;;;24.20;59.50;;;;;;6246475;28;20025;-70
2021/08/12 10:16:00;;;;;;;1.48;1.10;;;24.20;58.90;;;;;;6240498;28;20084;-70
2021/08/12 10:19:05;;;;;;;1.60;1.10;;;24.20;58.80;;;;;;6246963;28;20103;-70
2021/08/12 10:22:08;;;;;;;1.75;1.20;;;24.20;58.90;;;;;;6246252;28;20516;-70
2021/08/12 10:25:11;;;;;;;1.00;0.90;;;24.20;58.90;;;;;;6246316;28;20057;-70
2021/08/12 10:28:12;;;;;;;1.60;1.25;;;24.20;58.80;;;;;;6246223;28;20531;-70
2021/08/12 10:31:16;;;;;;;1.20;1.10;;;24.20;58.90;;;;;;6245946;28;20033;-70
2021/08/12 10:34:17;;;;;;;1.58;1.10;;;24.20;58.90;;;;;;6246176;28;20129;-71
2021/08/12 10:37:18;;;;;;;1.50;1.20;;;24.20;58.90;;;;;;6246029;28;20548;-71
2021/08/12 10:40:19;;;;;;;1.20;1.00;;;24.20;59.50;;;;;;6246415;28;20021;-70
2021/08/12 10:43:25;;;;;;;1.42;1.10;;;24.20;58.90;;;;;;6245440;28;20071;-70
2021/08/12 10:46:38;;;;;;;1.40;1.17;;;24.20;58.90;;;;;;6245599;28;20061;-70
2021/08/12 10:49:39;;;;;;;1.50;1.08;;;24.20;58.90;;;;;;6246514;28;20029;-70
2021/08/12 10:53:11;;;;;;;1.35;1.00;;;24.30;59.00;;;;;;6245641;28;20139;-70
2021/08/12 10:56:14;;;;;;;1.25;0.90;;;24.20;58.90;;;;;;6245699;28;20057;-70
2021/08/12 10:59:14;;;;;;;1.13;1.02;;;24.20;58.80;;;;;;6245666;28;20057;-70
2021/08/12 11:02:27;;;;;;;1.20;1.10;;;24.20;58.90;;;;;;6244781;28;20109;-71
2021/08/12 11:06:26;;;;;;;1.30;1.20;;;24.20;58.90;;;;;;6245127;28;20025;-71
2021/08/12 11:09:46;;;;;;;0.90;0.80;;;24.20;58.90;;;;;;6201282;28;20488;-70
2021/08/12 11:12:53;;;;;;;1.20;1.00;;;24.20;58.90;;;;;;6218832;28;20041;-70
2021/08/12 11:15:55;;;;;;;1.00;0.90;;;24.20;58.90;;;;;;6228335;28;20049;-70
2021/08/12 11:18:58;;;;;;;0.82;0.82;;;24.20;58.90;;;;;;6245086;28;20029;-70
2021/08/12 11:21:59;;;;;;;1.05;0.95;;;24.20;58.90;;;;;;6244849;28;20352;-70
2021/08/12 11:25:00;;;;;;;0.90;0.90;;;24.20;58.90;;;;;;6244860;28;20037;-70
2021/08/12 11:28:01;;;;;;;1.42;1.10;;;24.20;58.90;;;;;;6244238;28;20029;-70
2021/08/12 11:31:02;;;;;;;1.40;1.20;;;24.20;58.90;;;;;;6242660;28;20033;-71
2021/08/12 11:34:21;;;;;;;1.38;1.17;;;24.20;58.90;;;;;;6245027;28;20029;-70
2021/08/12 11:37:27;;;;;;;1.30;1.10;;;24.20;58.90;;;;;;6244768;28;20091;-71
2021/08/12 11:40:29;;;;;;;1.17;1.00;;;24.20;58.90;;;;;;6245388;28;20464;-70
2021/08/12 11:43:30;;;;;;;1.10;1.00;;;24.20;58.90;;;;;;6220189;28;20041;-71
2021/08/12 11:46:36;;;;;;;4.00;1.10;;;24.20;58.90;;;;;;6227594;28;20048;-70
2021/08/12 11:49:37;;;;;;;1.23;1.00;;;24.20;58.90;;;;;;6244027;28;20056;-71
2021/08/12 11:52:41;;;;;;;0.93;0.88;;;24.20;58.90;;;;;;6244298;28;20071;-70
2021/08/12 11:55:42;;;;;;;1.00;0.90;;;24.20;58.90;;;;;;6242851;28;20072;-70
2021/08/12 11:58:44;;;;;;;1.13;0.90;;;24.20;58.90;;;;;;6224455;28;20034;-70
2021/08/12 12:01:45;;;;;;;1.00;0.90;;;24.20;58.90;;;;;;6232265;28;20448;-70
2021/08/12 12:04:45;;;;;;;1.38;1.15;;;24.20;58.90;;;;;;6233981;28;20029;-70
2021/08/12 12:07:48;;;;;;;0.88;0.80;;;24.20;58.90;;;;;;6239425;28;20025;-70
2021/08/12 12:10:49;;;;;;;1.00;0.90;;;24.30;59.00;;;;;;6232420;28;20076;-71
2021/08/12 12:13:49;;;;;;;2.50;1.08;;;24.20;59.00;;;;;;6229999;28;20030;-70
2021/08/12 12:17:17;;;;;;;1.15;0.75;;;24.20;58.90;;;;;;6239837;28;20087;-70
2021/08/12 12:20:17;;;;;;;2.03;1.02;;;24.20;58.90;;;;;;6229315;28;20024;-70
2021/08/12 12:23:24;;;;;;;1.23;1.02;;;24.20;59.00;;;;;;6240530;28;20021;-70
2021/08/12 12:26:28;;;;;;;1.30;0.98;;;24.20;58.90;;;;;;6230841;28;20018;-71
2021/08/12 12:29:29;;;;;;;2.00;1.33;;;24.30;59.00;;;;;;6237450;28;20052;-70
2021/08/12 12:32:30;;;;;;;1.38;1.00;;;24.20;58.90;;;;;;6239052;28;20327;-70
2021/08/12 12:35:36;;;;;;;5.50;1.00;;;24.20;59.00;;;;;;6234393;28;20118;-71
2021/08/12 12:38:37;;;;;;;1.73;0.70;;;24.30;59.50;;;;;;6239726;28;20435;-70
2021/08/12 12:41:38;;;;;;;2.50;1.20;;;24.40;60.10;;;;;;6240225;28;20033;-69
2021/08/12 12:45:15;;;;;;;2.10;1.10;;;24.40;60.00;;;;;;6237203;28;20029;-70
2021/08/12 12:48:17;;;;;;;1.65;0.98;;;24.50;59.70;;;;;;6238457;28;20401;-70
2021/08/12 12:51:26;;;;;;;5.30;1.10;;;24.50;60.00;;;;;;6239881;28;20021;-71
2021/08/12 12:54:37;;;;;;;3.72;1.10;;;24.40;59.80;;;;;;6230490;28;20576;-70
2021/08/12 12:57:38;;;;;;;2.15;1.00;;;24.40;59.50;;;;;;6204144;28;1033908;-70
2021/08/12 13:00:39;;;;;;;1.58;1.02;;;24.40;60.10;;;;;;6241228;28;20025;-70
2021/08/12 13:03:41;;;;;;;2.08;0.90;;;24.40;59.20;;;;;;6239432;28;20041;-70
2021/08/12 13:06:43;;;;;;;1.10;0.80;;;24.40;59.20;;;;;;6236719;28;20220;-70
2021/08/12 13:09:43;;;;;;;1.52;0.98;;;24.40;59.20;;;;;;6239430;28;20135;-70
2021/08/12 13:13:01;;;;;;;0.80;0.80;;;24.50;59.10;;;;;;6239465;28;20622;-71
2021/08/12 13:16:07;;;;;;;3.42;1.00;;;24.40;59.30;;;;;;6231716;28;20033;-70
2021/08/12 13:19:23;;;;;;;1.10;1.00;;;24.50;59.30;;;;;;6241973;28;20029;-70
2021/08/12 13:22:23;;;;;;;4.05;1.08;;;24.40;59.10;;;;;;6221193;28;20022;-70
2021/08/12 13:25:25;;;;;;;3.65;0.90;;;24.40;59.10;;;;;;6236410;28;20511;-70
2021/08/12 13:28:34;;;;;;;3.20;0.95;;;24.40;59.20;;;;;;6241579;28;20123;-70
2021/08/12 13:31:37;;;;;;;1.40;1.17;;;24.40;59.20;;;;;;6243317;28;20052;-70
2021/08/12 13:34:43;;;;;;;1.73;0.95;;;24.40;59.20;;;;;;6242556;28;20036;-70
2021/08/12 13:37:44;;;;;;;1.52;0.73;;;24.30;59.20;;;;;;6242236;28;20087;-70
2021/08/12 13:40:45;;;;;;;3.90;1.00;;;24.30;59.20;;;;;;6242418;28;20061;-70
2021/08/12 13:43:45;;;;;;;0.93;0.80;;;24.30;59.20;;;;;;6242421;28;20029;-70
2021/08/12 13:46:46;;;;;;;1.00;0.90;;;24.30;59.20;;;;;;6242737;28;20029;-70
2021/08/12 13:49:47;;;;;;;1.55;0.90;;;24.40;59.30;;;;;;6242515;28;20113;-70
2021/08/12 13:52:48;;;;;;;2.08;1.02;;;24.30;59.20;;;;;;6242263;28;20026;-70
2021/08/12 13:55:48;;;;;;;2.17;1.00;;;24.30;59.20;;;;;;6244839;28;20037;-70
2021/08/12 13:58:49;;;;;;;0.88;0.80;;;24.30;59.20;;;;;;6246434;28;20476;-70
2021/08/12 14:01:52;;;;;;;1.98;1.10;;;24.30;59.20;;;;;;6246941;28;20017;-70
2021/08/12 14:04:52;;;;;;;0.80;0.80;;;24.30;59.20;;;;;;6246564;28;20033;-70
2021/08/12 14:07:53;;;;;;;2.22;0.82;;;24.30;59.20;;;;;;6247042;28;20049;-70
2021/08/12 14:10:55;;;;;;;2.97;0.90;;;24.30;59.20;;;;;;6246422;28;20029;-70
2021/08/12 14:13:56;;;;;;;0.88;0.70;;;24.30;59.20;;;;;;6238485;28;20393;-70
2021/08/12 14:16:56;;;;;;;0.90;0.73;;;24.30;59.20;;;;;;6242678;28;20033;-70
2021/08/12 14:19:57;;;;;;;0.90;0.80;;;24.30;59.20;;;;;;6246405;28;20048;-70
2021/08/12 14:23:00;;;;;;;1.00;0.90;;;24.30;59.20;;;;;;6246382;28;20057;-70
2021/08/12 14:26:01;;;;;;;2.08;0.80;;;24.30;59.20;;;;;;6246463;28;20045;-70
2021/08/12 14:29:01;;;;;;;1.35;0.82;;;24.30;59.20;;;;;;6228451;28;20037;-70
2021/08/12 14:32:02;;;;;;;0.93;0.82;;;24.30;59.20;;;;;;6235929;28;20025;-70
2021/08/12 14:35:03;;;;;;;0.80;0.80;;;24.30;59.20;;;;;;6243081;28;20026;-70
2021/08/12 14:38:03;;;;;;;1.13;1.02;;;24.30;59.20;;;;;;6245265;28;20033;-70
2021/08/12 14:41:05;;;;;;;1.20;0.95;;;24.30;59.20;;;;;;6244194;28;20068;-69
2021/08/12 14:44:06;;;;;;;1.40;1.20;;;24.30;59.00;;;;;;6243515;28;20061;-70
2021/08/12 14:47:06;;;;;;;3.17;1.25;;;24.30;58.90;;;;;;6239670;28;20798;-70
2021/08/12 14:50:07;;;;;;;2.47;1.00;;;24.30;58.80;;;;;;6243481;28;20456;-70
2021/08/12 14:53:08;;;;;;;1.40;1.23;;;24.30;58.60;;;;;;6243537;28;20576;-70
2021/08/12 14:56:08;;;;;;;1.73;1.30;;;24.30;58.00;;;;;;6242156;28;20057;-71
2021/08/12 14:59:09;;;;;;;2.67;1.48;;;24.30;58.10;;;;;;6242396;28;20025;-70
2021/08/12 15:02:09;;;;;;;1.73;1.40;;;24.30;57.90;;;;;;6242614;28;20484;-70
2021/08/12 15:05:10;;;;;;;2.47;1.35;;;24.30;57.80;;;;;;6243426;28;20113;-70
2021/08/12 15:08:12;;;;;;;4.05;1.73;;;24.30;57.70;;;;;;6240104;28;20026;-70
2021/08/12 15:11:15;;;;;;;3.55;1.77;;;24.30;57.50;;;;;;6236455;28;20041;-70
2021/08/12 15:14:15;;;;;;;1.85;1.63;;;24.30;57.50;;;;;;6229306;28;20041;-71
2021/08/12 15:17:16;;;;;;;2.33;1.63;;;24.30;57.50;;;;;;6242702;28;20080;-70
2021/08/12 15:20:17;;;;;;;2.15;1.52;;;24.30;57.50;;;;;;6241021;28;20030;-70
2021/08/12 15:23:17;;;;;;;3.03;1.83;;;24.30;57.50;;;;;;6238762;28;20108;-70
2021/08/12 15:26:18;;;;;;;1.98;1.65;;;24.30;57.30;;;;;;6228404;28;20060;-70
2021/08/12 15:29:18;;;;;;;1.63;1.42;;;24.30;57.20;;;;;;6242495;28;20108;-71
2021/08/12 15:32:19;;;;;;;7.38;2.28;;;24.30;57.00;;;;;;6242443;28;20041;-70
2021/08/12 15:35:20;;;;;;;4.07;1.95;;;24.30;56.80;;;;;;6236840;28;20052;-70
2021/08/12 15:38:21;;;;;;;2.05;1.80;;;24.30;56.80;;;;;;6242067;28;20160;-70
2021/08/12 15:41:21;;;;;;;4.10;2.20;;;24.30;56.70;;;;;;6240059;28;20029;-71
2021/08/12 15:44:22;;;;;;;3.85;2.20;;;24.30;56.70;;;;;;6242776;28;20373;-70
2021/08/12 15:47:23;;;;;;;2.83;2.03;;;24.30;56.70;;;;;;6239959;28;20039;-70
2021/08/12 15:50:23;;;;;;;3.25;2.15;;;24.30;56.80;;;;;;6242130;28;20127;-70
2021/08/12 15:53:24;;;;;;;2.65;2.08;;;24.30;57.00;;;;;;6239948;28;20498;-70